Terminal Aerodrome Forecast
Issued by NWS

Home | Current Version | Previous Version | Text Only | Print | Product List | Glossary On
Versions: 1 2 3 4 5 6 7 8 9 10 11 12 13 14 15 16 17
000
FTUS46 KLOX 231700
TAFPRB
TAF
KPRB 231730Z 2318/2418 31004KT P6SM SKC
     FM232200 32014KT P6SM SKC
     FM240500 33006KT P6SM SKC
     FM241000 VRB03KT P6SM SKC=

USA.gov is the U.S. government's official web portal to all federal, state and local government web resources and services.